sensor_id;sensor_type;location;lat;lon;timestamp;temperature;humidity
59999;DHT22;45859;51.378;6.736;2022-07-23T00:00:15;16.20;99.90
59999;DHT22;45859;51.378;6.736;2022-07-23T00:02:41;16.20;99.90
59999;DHT22;45859;51.378;6.736;2022-07-23T00:05:07;16.30;99.90
59999;DHT22;45859;51.378;6.736;2022-07-23T00:07:33;16.20;99.90
59999;DHT22;45859;51.378;6.736;2022-07-23T00:09:59;16.20;99.90
59999;DHT22;45859;51.378;6.736;2022-07-23T00:12:25;16.30;99.90
59999;DHT22;45859;51.378;6.736;2022-07-23T00:14:50;16.30;99.90
59999;DHT22;45859;51.378;6.736;2022-07-23T00:17:16;16.40;99.90
59999;DHT22;45859;51.378;6.736;2022-07-23T00:19:42;16.40;99.90
59999;DHT22;45859;51.378;6.736;2022-07-23T00:22:08;16.40;99.90
59999;DHT22;45859;51.378;6.736;2022-07-23T00:24:33;16.40;99.90
59999;DHT22;45859;51.378;6.736;2022-07-23T00:26:59;16.50;99.90
59999;DHT22;45859;51.378;6.736;2022-07-23T00:29:25;16.50;99.90
59999;DHT22;45859;51.378;6.736;2022-07-23T00:31:50;16.40;99.90
59999;DHT22;45859;51.378;6.736;2022-07-23T00:34:16;16.40;99.90
59999;DHT22;45859;51.378;6.736;2022-07-23T00:36:41;16.40;99.90
59999;DHT22;45859;51.378;6.736;2022-07-23T00:39:07;16.30;99.90
59999;DHT22;45859;51.378;6.736;2022-07-23T00:41:33;16.30;99.90
59999;DHT22;45859;51.378;6.736;2022-07-23T00:44:15;16.30;99.90
59999;DHT22;45859;51.378;6.736;2022-07-23T00:46:53;16.30;99.90
59999;DHT22;45859;51.378;6.736;2022-07-23T00:49:20;16.30;99.90
59999;DHT22;45859;51.378;6.736;2022-07-23T00:51:48;16.40;99.90
59999;DHT22;45859;51.378;6.736;2022-07-23T00:54:14;16.30;99.90
59999;DHT22;45859;51.378;6.736;2022-07-23T00:56:42;16.30;99.90
59999;DHT22;45859;51.378;6.736;2022-07-23T00:59:08;16.30;99.90
59999;DHT22;45859;51.378;6.736;2022-07-23T01:01:34;16.40;99.90
59999;DHT22;45859;51.378;6.736;2022-07-23T01:04:00;16.30;99.90
59999;DHT22;45859;51.378;6.736;2022-07-23T01:06:25;16.30;99.90
59999;DHT22;45859;51.378;6.736;2022-07-23T01:08:52;16.30;99.90
59999;DHT22;45859;51.378;6.736;2022-07-23T01:11:19;16.30;99.90
59999;DHT22;45859;51.378;6.736;2022-07-23T01:13:45;16.30;99.90
59999;DHT22;45859;51.378;6.736;2022-07-23T01:16:11;16.30;99.90
59999;DHT22;45859;51.378;6.736;2022-07-23T01:18:36;16.30;99.90
59999;DHT22;45859;51.378;6.736;2022-07-23T01:21:02;16.30;99.90
59999;DHT22;45859;51.378;6.736;2022-07-23T01:23:28;16.30;99.90
59999;DHT22;45859;51.378;6.736;2022-07-23T01:25:54;16.30;99.90
59999;DHT22;45859;51.378;6.736;2022-07-23T01:28:20;16.30;99.90
59999;DHT22;45859;51.378;6.736;2022-07-23T01:30:46;16.30;99.90
59999;DHT22;45859;51.378;6.736;2022-07-23T01:33:12;16.30;99.90
59999;DHT22;45859;51.378;6.736;2022-07-23T01:35:38;16.40;99.90
59999;DHT22;45859;51.378;6.736;2022-07-23T01:38:03;16.40;99.90
59999;DHT22;45859;51.378;6.736;2022-07-23T01:40:29;16.30;99.90
59999;DHT22;45859;51.378;6.736;2022-07-23T01:42:55;16.30;99.90
59999;DHT22;45859;51.378;6.736;2022-07-23T01:45:20;16.30;99.90
59999;DHT22;45859;51.378;6.736;2022-07-23T01:47:47;16.30;99.90
59999;DHT22;45859;51.378;6.736;2022-07-23T01:50:13;16.20;99.90
59999;DHT22;45859;51.378;6.736;2022-07-23T01:52:38;16.20;99.90
59999;DHT22;45859;51.378;6.736;2022-07-23T01:55:04;16.20;99.90
59999;DHT22;45859;51.378;6.736;2022-07-23T01:57:31;16.20;99.90
59999;DHT22;45859;51.378;6.736;2022-07-23T01:59:57;16.10;99.90
59999;DHT22;45859;51.378;6.736;2022-07-23T02:02:22;16.10;99.90
59999;DHT22;45859;51.378;6.736;2022-07-23T02:04:48;16.10;99.90
59999;DHT22;45859;51.378;6.736;2022-07-23T02:07:14;16.10;99.90
59999;DHT22;45859;51.378;6.736;2022-07-23T02:09:39;16.00;99.90
59999;DHT22;45859;51.378;6.736;2022-07-23T02:12:05;16.00;99.90
59999;DHT22;45859;51.378;6.736;2022-07-23T02:14:31;16.00;99.90
59999;DHT22;45859;51.378;6.736;2022-07-23T02:16:56;16.00;99.90
59999;DHT22;45859;51.378;6.736;2022-07-23T02:19:22;16.00;99.90
59999;DHT22;45859;51.378;6.736;2022-07-23T02:21:48;16.00;99.90
59999;DHT22;45859;51.378;6.736;2022-07-23T02:24:14;16.00;99.90
59999;DHT22;45859;51.378;6.736;2022-07-23T02:26:40;16.00;99.90
59999;DHT22;45859;51.378;6.736;2022-07-23T02:29:05;15.90;99.90
59999;DHT22;45859;51.378;6.736;2022-07-23T02:31:31;16.00;99.90
59999;DHT22;45859;51.378;6.736;2022-07-23T02:33:57;16.00;99.90
59999;DHT22;45859;51.378;6.736;2022-07-23T02:36:23;16.00;99.90
59999;DHT22;45859;51.378;6.736;2022-07-23T02:38:49;16.00;99.90
59999;DHT22;45859;51.378;6.736;2022-07-23T02:41:15;16.00;99.90
59999;DHT22;45859;51.378;6.736;2022-07-23T02:43:40;15.90;99.90
59999;DHT22;45859;51.378;6.736;2022-07-23T02:46:06;15.90;99.90
59999;DHT22;45859;51.378;6.736;2022-07-23T02:48:31;15.90;99.90
59999;DHT22;45859;51.378;6.736;2022-07-23T02:50:57;15.90;99.90
59999;DHT22;45859;51.378;6.736;2022-07-23T02:53:23;15.90;99.90
59999;DHT22;45859;51.378;6.736;2022-07-23T02:55:49;15.90;99.90
59999;DHT22;45859;51.378;6.736;2022-07-23T02:58:15;15.80;99.90
59999;DHT22;45859;51.378;6.736;2022-07-23T03:00:40;15.80;99.90
59999;DHT22;45859;51.378;6.736;2022-07-23T03:03:06;15.80;99.90
59999;DHT22;45859;51.378;6.736;2022-07-23T03:05:33;15.80;99.90
59999;DHT22;45859;51.378;6.736;2022-07-23T03:07:58;15.80;99.90
59999;DHT22;45859;51.378;6.736;2022-07-23T03:10:24;15.80;99.90
59999;DHT22;45859;51.378;6.736;2022-07-23T03:12:50;15.70;99.90
59999;DHT22;45859;51.378;6.736;2022-07-23T03:15:15;15.60;99.90
59999;DHT22;45859;51.378;6.736;2022-07-23T03:17:41;15.60;99.90
59999;DHT22;45859;51.378;6.736;2022-07-23T03:20:07;15.40;99.90
59999;DHT22;45859;51.378;6.736;2022-07-23T03:22:33;15.50;99.90
59999;DHT22;45859;51.378;6.736;2022-07-23T03:24:59;15.50;99.90
59999;DHT22;45859;51.378;6.736;2022-07-23T03:27:26;15.50;99.90
59999;DHT22;45859;51.378;6.736;2022-07-23T03:29:53;15.50;99.90
59999;DHT22;45859;51.378;6.736;2022-07-23T03:32:19;15.50;99.90
59999;DHT22;45859;51.378;6.736;2022-07-23T03:34:45;15.40;99.90
59999;DHT22;45859;51.378;6.736;2022-07-23T03:37:11;15.40;99.90
59999;DHT22;45859;51.378;6.736;2022-07-23T03:39:36;15.40;99.90
59999;DHT22;45859;51.378;6.736;2022-07-23T03:42:02;15.30;99.90
59999;DHT22;45859;51.378;6.736;2022-07-23T03:44:28;15.30;99.90
59999;DHT22;45859;51.378;6.736;2022-07-23T03:46:53;15.30;99.90
59999;DHT22;45859;51.378;6.736;2022-07-23T03:49:19;15.30;99.90
59999;DHT22;45859;51.378;6.736;2022-07-23T03:51:45;15.30;99.90
59999;DHT22;45859;51.378;6.736;2022-07-23T03:54:11;15.20;99.90
59999;DHT22;45859;51.378;6.736;2022-07-23T03:56:36;15.20;99.90
59999;DHT22;45859;51.378;6.736;2022-07-23T03:59:02;15.20;99.90
59999;DHT22;45859;51.378;6.736;2022-07-23T04:01:28;15.20;99.90
59999;DHT22;45859;51.378;6.736;2022-07-23T04:03:53;15.20;99.90
59999;DHT22;45859;51.378;6.736;2022-07-23T04:06:20;15.20;99.90
59999;DHT22;45859;51.378;6.736;2022-07-23T04:08:45;15.20;99.90
59999;DHT22;45859;51.378;6.736;2022-07-23T04:11:11;15.20;99.90
59999;DHT22;45859;51.378;6.736;2022-07-23T04:13:37;15.20;99.90
59999;DHT22;45859;51.378;6.736;2022-07-23T04:16:02;15.30;99.90
59999;DHT22;45859;51.378;6.736;2022-07-23T04:18:29;15.30;99.90
59999;DHT22;45859;51.378;6.736;2022-07-23T04:20:55;15.40;99.90
59999;DHT22;45859;51.378;6.736;2022-07-23T04:23:21;15.40;99.90
59999;DHT22;45859;51.378;6.736;2022-07-23T04:25:47;15.40;99.90
59999;DHT22;45859;51.378;6.736;2022-07-23T04:28:12;15.40;99.90
59999;DHT22;45859;51.378;6.736;2022-07-23T04:30:38;15.50;99.90
59999;DHT22;45859;51.378;6.736;2022-07-23T04:33:04;15.50;99.90
59999;DHT22;45859;51.378;6.736;2022-07-23T04:35:33;15.50;99.90
59999;DHT22;45859;51.378;6.736;2022-07-23T04:37:59;15.60;99.90
59999;DHT22;45859;51.378;6.736;2022-07-23T04:40:26;15.60;99.90
59999;DHT22;45859;51.378;6.736;2022-07-23T04:42:52;15.70;99.90
59999;DHT22;45859;51.378;6.736;2022-07-23T04:45:17;15.80;99.90
59999;DHT22;45859;51.378;6.736;2022-07-23T04:47:43;15.80;99.90
59999;DHT22;45859;51.378;6.736;2022-07-23T04:50:09;15.90;99.90
59999;DHT22;45859;51.378;6.736;2022-07-23T04:52:35;16.10;99.90
59999;DHT22;45859;51.378;6.736;2022-07-23T04:55:02;16.10;99.90
59999;DHT22;45859;51.378;6.736;2022-07-23T04:57:28;16.10;99.90
59999;DHT22;45859;51.378;6.736;2022-07-23T04:59:53;16.20;99.90
59999;DHT22;45859;51.378;6.736;2022-07-23T05:02:19;16.30;99.90
59999;DHT22;45859;51.378;6.736;2022-07-23T05:04:45;16.30;99.90
59999;DHT22;45859;51.378;6.736;2022-07-23T05:07:11;16.40;99.90
59999;DHT22;45859;51.378;6.736;2022-07-23T05:09:37;16.40;99.90
59999;DHT22;45859;51.378;6.736;2022-07-23T05:12:03;16.50;99.90
59999;DHT22;45859;51.378;6.736;2022-07-23T05:14:28;16.70;99.90
59999;DHT22;45859;51.378;6.736;2022-07-23T05:16:54;16.90;99.90
59999;DHT22;45859;51.378;6.736;2022-07-23T05:19:20;16.90;99.90
59999;DHT22;45859;51.378;6.736;2022-07-23T05:21:45;17.10;99.90
59999;DHT22;45859;51.378;6.736;2022-07-23T05:24:11;17.40;99.90
59999;DHT22;45859;51.378;6.736;2022-07-23T05:26:37;17.60;99.90
59999;DHT22;45859;51.378;6.736;2022-07-23T05:29:03;17.80;99.90
59999;DHT22;45859;51.378;6.736;2022-07-23T05:31:28;18.00;99.90
59999;DHT22;45859;51.378;6.736;2022-07-23T05:33:54;18.10;99.90
59999;DHT22;45859;51.378;6.736;2022-07-23T05:36:20;18.40;99.90
59999;DHT22;45859;51.378;6.736;2022-07-23T05:38:45;18.50;99.90
59999;DHT22;45859;51.378;6.736;2022-07-23T05:41:11;18.70;99.90
59999;DHT22;45859;51.378;6.736;2022-07-23T05:43:37;18.80;99.90
59999;DHT22;45859;51.378;6.736;2022-07-23T05:46:03;18.90;99.90
59999;DHT22;45859;51.378;6.736;2022-07-23T05:48:28;19.00;99.90
59999;DHT22;45859;51.378;6.736;2022-07-23T05:50:54;19.00;99.90
59999;DHT22;45859;51.378;6.736;2022-07-23T05:53:20;19.10;99.90
59999;DHT22;45859;51.378;6.736;2022-07-23T05:55:46;19.60;99.90
59999;DHT22;45859;51.378;6.736;2022-07-23T05:58:11;20.30;99.90
59999;DHT22;45859;51.378;6.736;2022-07-23T06:00:37;21.30;99.90
59999;DHT22;45859;51.378;6.736;2022-07-23T06:03:03;22.20;99.90
59999;DHT22;45859;51.378;6.736;2022-07-23T06:05:28;22.90;99.90
59999;DHT22;45859;51.378;6.736;2022-07-23T06:07:54;23.50;99.90
59999;DHT22;45859;51.378;6.736;2022-07-23T06:10:20;24.20;99.90
59999;DHT22;45859;51.378;6.736;2022-07-23T06:12:46;24.40;99.90
59999;DHT22;45859;51.378;6.736;2022-07-23T06:15:12;25.30;99.90
59999;DHT22;45859;51.378;6.736;2022-07-23T06:17:38;25.70;99.90
59999;DHT22;45859;51.378;6.736;2022-07-23T06:20:06;25.80;99.90
59999;DHT22;45859;51.378;6.736;2022-07-23T06:22:32;25.90;99.90
59999;DHT22;45859;51.378;6.736;2022-07-23T06:24:58;26.80;99.90
59999;DHT22;45859;51.378;6.736;2022-07-23T06:27:23;27.80;99.90
59999;DHT22;45859;51.378;6.736;2022-07-23T06:29:49;27.90;99.90
59999;DHT22;45859;51.378;6.736;2022-07-23T06:32:15;28.70;99.90
59999;DHT22;45859;51.378;6.736;2022-07-23T06:34:43;29.00;99.90
59999;DHT22;45859;51.378;6.736;2022-07-23T06:37:09;29.40;99.90
59999;DHT22;45859;51.378;6.736;2022-07-23T06:39:35;28.90;99.90
59999;DHT22;45859;51.378;6.736;2022-07-23T06:42:01;28.70;99.90
59999;DHT22;45859;51.378;6.736;2022-07-23T06:44:27;28.60;99.90
59999;DHT22;45859;51.378;6.736;2022-07-23T06:46:53;28.90;99.90
59999;DHT22;45859;51.378;6.736;2022-07-23T06:49:18;29.20;99.90
59999;DHT22;45859;51.378;6.736;2022-07-23T06:51:44;29.20;99.90
59999;DHT22;45859;51.378;6.736;2022-07-23T06:54:10;29.10;99.90
59999;DHT22;45859;51.378;6.736;2022-07-23T06:56:36;29.10;99.90
59999;DHT22;45859;51.378;6.736;2022-07-23T06:59:03;30.10;99.90
59999;DHT22;45859;51.378;6.736;2022-07-23T07:01:29;30.20;99.90
59999;DHT22;45859;51.378;6.736;2022-07-23T07:03:54;30.70;99.90
59999;DHT22;45859;51.378;6.736;2022-07-23T07:06:20;31.00;99.90
59999;DHT22;45859;51.378;6.736;2022-07-23T07:08:46;31.40;99.90
59999;DHT22;45859;51.378;6.736;2022-07-23T07:11:12;31.30;99.90
59999;DHT22;45859;51.378;6.736;2022-07-23T07:13:38;31.60;99.90
59999;DHT22;45859;51.378;6.736;2022-07-23T07:16:04;32.00;99.90
59999;DHT22;45859;51.378;6.736;2022-07-23T07:18:30;32.20;99.90
59999;DHT22;45859;51.378;6.736;2022-07-23T07:20:57;32.80;99.90
59999;DHT22;45859;51.378;6.736;2022-07-23T07:23:23;32.60;99.90
59999;DHT22;45859;51.378;6.736;2022-07-23T07:25:48;32.90;99.90
59999;DHT22;45859;51.378;6.736;2022-07-23T07:28:14;32.70;99.90
59999;DHT22;45859;51.378;6.736;2022-07-23T07:30:40;32.10;99.90
59999;DHT22;45859;51.378;6.736;2022-07-23T07:33:06;31.80;99.90
59999;DHT22;45859;51.378;6.736;2022-07-23T07:35:32;31.80;99.90
59999;DHT22;45859;51.378;6.736;2022-07-23T07:37:59;32.00;99.90
59999;DHT22;45859;51.378;6.736;2022-07-23T07:40:25;31.60;99.90
59999;DHT22;45859;51.378;6.736;2022-07-23T07:42:52;30.60;99.90
59999;DHT22;45859;51.378;6.736;2022-07-23T07:45:22;30.80;99.90
59999;DHT22;45859;51.378;6.736;2022-07-23T07:47:48;30.70;99.90
59999;DHT22;45859;51.378;6.736;2022-07-23T07:50:15;30.50;99.90
59999;DHT22;45859;51.378;6.736;2022-07-23T07:52:40;30.70;99.90
59999;DHT22;45859;51.378;6.736;2022-07-23T07:55:07;31.10;99.90
59999;DHT22;45859;51.378;6.736;2022-07-23T07:57:34;31.60;99.90
59999;DHT22;45859;51.378;6.736;2022-07-23T08:00:00;31.80;99.90
59999;DHT22;45859;51.378;6.736;2022-07-23T08:02:29;32.40;99.90
59999;DHT22;45859;51.378;6.736;2022-07-23T08:05:04;32.20;99.90
59999;DHT22;45859;51.378;6.736;2022-07-23T08:07:30;32.40;99.90
59999;DHT22;45859;51.378;6.736;2022-07-23T08:09:56;32.90;99.90
59999;DHT22;45859;51.378;6.736;2022-07-23T08:12:21;33.00;99.90
59999;DHT22;45859;51.378;6.736;2022-07-23T08:14:47;32.70;99.90
59999;DHT22;45859;51.378;6.736;2022-07-23T08:17:13;32.50;99.90
59999;DHT22;45859;51.378;6.736;2022-07-23T08:19:38;33.00;99.90
59999;DHT22;45859;51.378;6.736;2022-07-23T08:22:04;32.80;99.90
59999;DHT22;45859;51.378;6.736;2022-07-23T08:24:30;32.90;99.90
59999;DHT22;45859;51.378;6.736;2022-07-23T08:26:58;33.20;99.90
59999;DHT22;45859;51.378;6.736;2022-07-23T08:29:30;33.50;99.90
59999;DHT22;45859;51.378;6.736;2022-07-23T08:31:59;33.80;99.90
59999;DHT22;45859;51.378;6.736;2022-07-23T08:34:25;33.70;99.90
59999;DHT22;45859;51.378;6.736;2022-07-23T08:37:00;33.80;99.90
59999;DHT22;45859;51.378;6.736;2022-07-23T08:39:27;33.60;99.90
59999;DHT22;45859;51.378;6.736;2022-07-23T08:41:53;33.80;99.90
59999;DHT22;45859;51.378;6.736;2022-07-23T08:44:18;33.90;99.90
59999;DHT22;45859;51.378;6.736;2022-07-23T08:46:44;33.50;99.90
59999;DHT22;45859;51.378;6.736;2022-07-23T08:49:11;33.30;99.90
59999;DHT22;45859;51.378;6.736;2022-07-23T08:51:37;34.00;99.90
59999;DHT22;45859;51.378;6.736;2022-07-23T08:54:03;34.30;99.90
59999;DHT22;45859;51.378;6.736;2022-07-23T08:56:29;34.00;99.90
59999;DHT22;45859;51.378;6.736;2022-07-23T08:58:55;34.30;99.90
59999;DHT22;45859;51.378;6.736;2022-07-23T09:01:21;34.50;99.90
59999;DHT22;45859;51.378;6.736;2022-07-23T09:03:47;34.80;99.90
59999;DHT22;45859;51.378;6.736;2022-07-23T09:06:12;34.70;99.90
59999;DHT22;45859;51.378;6.736;2022-07-23T09:08:43;35.30;99.90
59999;DHT22;45859;51.378;6.736;2022-07-23T09:11:11;35.70;99.90
59999;DHT22;45859;51.378;6.736;2022-07-23T09:16:23;35.90;99.90
59999;DHT22;45859;51.378;6.736;2022-07-23T09:18:51;35.20;99.90
59999;DHT22;45859;51.378;6.736;2022-07-23T09:21:28;34.00;99.90
59999;DHT22;45859;51.378;6.736;2022-07-23T09:23:57;32.90;99.90
59999;DHT22;45859;51.378;6.736;2022-07-23T09:26:44;33.60;99.90
59999;DHT22;45859;51.378;6.736;2022-07-23T09:29:19;33.50;99.90
59999;DHT22;45859;51.378;6.736;2022-07-23T09:31:58;32.80;99.90
59999;DHT22;45859;51.378;6.736;2022-07-23T09:34:27;32.90;99.90
59999;DHT22;45859;51.378;6.736;2022-07-23T09:36:58;31.50;99.90
59999;DHT22;45859;51.378;6.736;2022-07-23T09:39:33;31.60;99.90
59999;DHT22;45859;51.378;6.736;2022-07-23T09:42:18;31.50;99.90
59999;DHT22;45859;51.378;6.736;2022-07-23T09:44:47;31.30;99.90
59999;DHT22;45859;51.378;6.736;2022-07-23T09:47:13;31.20;99.90
59999;DHT22;45859;51.378;6.736;2022-07-23T09:49:39;30.90;99.90
59999;DHT22;45859;51.378;6.736;2022-07-23T09:52:05;30.90;99.90
59999;DHT22;45859;51.378;6.736;2022-07-23T09:54:37;30.70;99.90
59999;DHT22;45859;51.378;6.736;2022-07-23T09:57:06;30.20;99.90
59999;DHT22;45859;51.378;6.736;2022-07-23T09:59:38;29.70;99.90
59999;DHT22;45859;51.378;6.736;2022-07-23T10:02:05;29.40;99.90
59999;DHT22;45859;51.378;6.736;2022-07-23T10:04:32;28.80;99.90
59999;DHT22;45859;51.378;6.736;2022-07-23T10:07:04;28.80;99.90
59999;DHT22;45859;51.378;6.736;2022-07-23T10:09:35;28.30;99.90
59999;DHT22;45859;51.378;6.736;2022-07-23T10:12:04;28.00;99.90
59999;DHT22;45859;51.378;6.736;2022-07-23T10:14:49;27.90;99.90
59999;DHT22;45859;51.378;6.736;2022-07-23T10:17:16;27.80;99.90
59999;DHT22;45859;51.378;6.736;2022-07-23T10:19:43;28.00;99.90
59999;DHT22;45859;51.378;6.736;2022-07-23T10:22:14;27.90;99.90
59999;DHT22;45859;51.378;6.736;2022-07-23T10:27:58;27.70;99.90
59999;DHT22;45859;51.378;6.736;2022-07-23T10:30:51;26.80;99.90
59999;DHT22;45859;51.378;6.736;2022-07-23T10:33:27;26.50;99.90
59999;DHT22;45859;51.378;6.736;2022-07-23T10:36:04;26.80;99.90
59999;DHT22;45859;51.378;6.736;2022-07-23T10:39:03;27.00;99.90
59999;DHT22;45859;51.378;6.736;2022-07-23T10:41:39;27.10;99.90
59999;DHT22;45859;51.378;6.736;2022-07-23T10:44:18;27.10;99.90
59999;DHT22;45859;51.378;6.736;2022-07-23T10:47:04;26.80;99.90
59999;DHT22;45859;51.378;6.736;2022-07-23T10:49:49;26.70;99.90
59999;DHT22;45859;51.378;6.736;2022-07-23T10:57:26;26.70;99.90
59999;DHT22;45859;51.378;6.736;2022-07-23T11:02:49;26.30;99.90
59999;DHT22;45859;51.378;6.736;2022-07-23T11:05:19;26.00;99.90
59999;DHT22;45859;51.378;6.736;2022-07-23T11:16:16;25.80;99.90
59999;DHT22;45859;51.378;6.736;2022-07-23T11:24:10;26.20;99.90
59999;DHT22;45859;51.378;6.736;2022-07-23T11:31:57;25.60;99.90
59999;DHT22;45859;51.378;6.736;2022-07-23T11:36:59;25.70;99.90
59999;DHT22;45859;51.378;6.736;2022-07-23T11:39:26;25.50;99.90
59999;DHT22;45859;51.378;6.736;2022-07-23T11:41:53;25.40;99.90
59999;DHT22;45859;51.378;6.736;2022-07-23T11:47:08;25.20;99.90
59999;DHT22;45859;51.378;6.736;2022-07-23T11:49:34;25.30;99.90
59999;DHT22;45859;51.378;6.736;2022-07-23T11:52:17;25.40;99.90
59999;DHT22;45859;51.378;6.736;2022-07-23T11:54:51;25.60;99.90
59999;DHT22;45859;51.378;6.736;2022-07-23T11:57:19;25.50;99.90
59999;DHT22;45859;51.378;6.736;2022-07-23T11:59:47;25.30;99.90
59999;DHT22;45859;51.378;6.736;2022-07-23T12:02:15;25.40;99.90
59999;DHT22;45859;51.378;6.736;2022-07-23T12:09:48;24.90;99.90
59999;DHT22;45859;51.378;6.736;2022-07-23T12:12:14;25.00;99.90
59999;DHT22;45859;51.378;6.736;2022-07-23T12:14:58;25.00;99.90
59999;DHT22;45859;51.378;6.736;2022-07-23T12:17:29;25.00;99.90
59999;DHT22;45859;51.378;6.736;2022-07-23T12:19:57;24.80;99.90
59999;DHT22;45859;51.378;6.736;2022-07-23T12:22:26;24.80;99.90
59999;DHT22;45859;51.378;6.736;2022-07-23T12:25:12;24.80;99.90
59999;DHT22;45859;51.378;6.736;2022-07-23T12:27:38;24.80;99.90
59999;DHT22;45859;51.378;6.736;2022-07-23T12:30:27;24.60;99.90
59999;DHT22;45859;51.378;6.736;2022-07-23T12:32:55;24.60;99.90
59999;DHT22;45859;51.378;6.736;2022-07-23T12:35:23;24.50;99.90
59999;DHT22;45859;51.378;6.736;2022-07-23T12:38:06;24.50;99.90
59999;DHT22;45859;51.378;6.736;2022-07-23T12:40:36;24.40;99.90
59999;DHT22;45859;51.378;6.736;2022-07-23T12:43:05;24.50;99.90
59999;DHT22;45859;51.378;6.736;2022-07-23T12:50:48;24.50;99.90
59999;DHT22;45859;51.378;6.736;2022-07-23T12:53:23;24.50;99.90
59999;DHT22;45859;51.378;6.736;2022-07-23T12:55:50;24.60;99.90
59999;DHT22;45859;51.378;6.736;2022-07-23T12:58:21;24.60;99.90
59999;DHT22;45859;51.378;6.736;2022-07-23T13:00:54;24.70;99.90
59999;DHT22;45859;51.378;6.736;2022-07-23T13:03:38;24.70;99.90
59999;DHT22;45859;51.378;6.736;2022-07-23T13:06:08;24.90;99.90
59999;DHT22;45859;51.378;6.736;2022-07-23T13:08:36;25.00;99.90
59999;DHT22;45859;51.378;6.736;2022-07-23T13:11:02;24.90;99.90
59999;DHT22;45859;51.378;6.736;2022-07-23T13:13:30;25.00;99.90
59999;DHT22;45859;51.378;6.736;2022-07-23T13:15:57;24.90;99.90
59999;DHT22;45859;51.378;6.736;2022-07-23T13:18:23;24.90;99.90
59999;DHT22;45859;51.378;6.736;2022-07-23T13:20:49;24.80;99.90
59999;DHT22;45859;51.378;6.736;2022-07-23T13:23:15;24.70;99.90
59999;DHT22;45859;51.378;6.736;2022-07-23T13:25:41;24.80;99.90
59999;DHT22;45859;51.378;6.736;2022-07-23T13:28:07;25.00;99.90
59999;DHT22;45859;51.378;6.736;2022-07-23T13:30:33;25.00;99.90
59999;DHT22;45859;51.378;6.736;2022-07-23T13:33:00;25.10;99.90
59999;DHT22;45859;51.378;6.736;2022-07-23T13:35:26;25.10;99.90
59999;DHT22;45859;51.378;6.736;2022-07-23T13:37:52;25.20;99.90
59999;DHT22;45859;51.378;6.736;2022-07-23T13:40:18;25.30;99.90
59999;DHT22;45859;51.378;6.736;2022-07-23T13:42:44;25.20;99.90
59999;DHT22;45859;51.378;6.736;2022-07-23T13:45:09;25.30;99.90
59999;DHT22;45859;51.378;6.736;2022-07-23T13:47:35;25.10;99.90
59999;DHT22;45859;51.378;6.736;2022-07-23T13:50:01;25.10;99.90
59999;DHT22;45859;51.378;6.736;2022-07-23T13:52:27;25.20;99.90
59999;DHT22;45859;51.378;6.736;2022-07-23T13:54:53;25.10;99.90
59999;DHT22;45859;51.378;6.736;2022-07-23T13:57:18;25.00;99.90
59999;DHT22;45859;51.378;6.736;2022-07-23T13:59:44;24.90;99.90
59999;DHT22;45859;51.378;6.736;2022-07-23T14:02:10;25.00;99.90
59999;DHT22;45859;51.378;6.736;2022-07-23T14:04:38;25.20;99.90
59999;DHT22;45859;51.378;6.736;2022-07-23T14:07:04;25.30;99.90
59999;DHT22;45859;51.378;6.736;2022-07-23T14:09:30;25.30;99.90
59999;DHT22;45859;51.378;6.736;2022-07-23T14:11:59;25.30;99.90
59999;DHT22;45859;51.378;6.736;2022-07-23T14:14:25;25.20;99.90
59999;DHT22;45859;51.378;6.736;2022-07-23T14:16:50;25.20;99.90
59999;DHT22;45859;51.378;6.736;2022-07-23T14:19:16;25.30;99.90
59999;DHT22;45859;51.378;6.736;2022-07-23T14:21:42;25.30;99.90
59999;DHT22;45859;51.378;6.736;2022-07-23T14:24:08;25.20;99.90
59999;DHT22;45859;51.378;6.736;2022-07-23T14:26:34;25.20;99.90
59999;DHT22;45859;51.378;6.736;2022-07-23T14:29:01;25.30;99.90
59999;DHT22;45859;51.378;6.736;2022-07-23T14:31:26;25.40;99.90
59999;DHT22;45859;51.378;6.736;2022-07-23T14:33:52;25.50;99.90
59999;DHT22;45859;51.378;6.736;2022-07-23T14:36:18;25.60;99.90
59999;DHT22;45859;51.378;6.736;2022-07-23T14:38:43;25.60;99.90
59999;DHT22;45859;51.378;6.736;2022-07-23T14:41:09;25.50;99.90
59999;DHT22;45859;51.378;6.736;2022-07-23T14:43:36;25.60;99.90
59999;DHT22;45859;51.378;6.736;2022-07-23T14:46:02;25.70;99.90
59999;DHT22;45859;51.378;6.736;2022-07-23T14:48:28;25.60;99.90
59999;DHT22;45859;51.378;6.736;2022-07-23T14:50:53;25.50;99.90
59999;DHT22;45859;51.378;6.736;2022-07-23T14:53:19;25.50;99.90
59999;DHT22;45859;51.378;6.736;2022-07-23T14:55:45;25.40;99.90
59999;DHT22;45859;51.378;6.736;2022-07-23T14:58:11;25.30;99.90
59999;DHT22;45859;51.378;6.736;2022-07-23T15:00:37;25.10;99.90
59999;DHT22;45859;51.378;6.736;2022-07-23T15:03:03;25.00;99.90
59999;DHT22;45859;51.378;6.736;2022-07-23T15:05:28;24.80;99.90
59999;DHT22;45859;51.378;6.736;2022-07-23T15:07:55;24.80;99.90
59999;DHT22;45859;51.378;6.736;2022-07-23T15:10:21;24.80;99.90
59999;DHT22;45859;51.378;6.736;2022-07-23T15:12:47;24.90;99.90
59999;DHT22;45859;51.378;6.736;2022-07-23T15:15:13;25.00;99.90
59999;DHT22;45859;51.378;6.736;2022-07-23T15:17:39;25.10;99.90
59999;DHT22;45859;51.378;6.736;2022-07-23T15:20:05;25.10;99.90
59999;DHT22;45859;51.378;6.736;2022-07-23T15:22:32;25.10;99.90
59999;DHT22;45859;51.378;6.736;2022-07-23T15:24:58;25.10;99.90
59999;DHT22;45859;51.378;6.736;2022-07-23T15:27:23;25.20;99.90
59999;DHT22;45859;51.378;6.736;2022-07-23T15:29:49;25.20;99.90
59999;DHT22;45859;51.378;6.736;2022-07-23T15:32:15;25.10;99.90
59999;DHT22;45859;51.378;6.736;2022-07-23T15:34:40;25.10;99.90
59999;DHT22;45859;51.378;6.736;2022-07-23T15:37:06;25.20;99.90
59999;DHT22;45859;51.378;6.736;2022-07-23T15:39:32;25.30;99.90
59999;DHT22;45859;51.378;6.736;2022-07-23T15:41:59;25.40;99.90
59999;DHT22;45859;51.378;6.736;2022-07-23T15:44:26;25.20;99.90
59999;DHT22;45859;51.378;6.736;2022-07-23T15:46:51;25.20;99.90
59999;DHT22;45859;51.378;6.736;2022-07-23T15:49:17;25.10;99.90
59999;DHT22;45859;51.378;6.736;2022-07-23T15:51:43;25.00;99.90
59999;DHT22;45859;51.378;6.736;2022-07-23T15:54:09;25.10;99.90
59999;DHT22;45859;51.378;6.736;2022-07-23T15:56:35;25.10;99.90
59999;DHT22;45859;51.378;6.736;2022-07-23T15:59:01;25.30;99.90
59999;DHT22;45859;51.378;6.736;2022-07-23T16:01:27;25.30;99.90
59999;DHT22;45859;51.378;6.736;2022-07-23T16:03:56;25.30;99.90
59999;DHT22;45859;51.378;6.736;2022-07-23T16:06:23;25.30;99.90
59999;DHT22;45859;51.378;6.736;2022-07-23T16:08:50;25.30;99.90
59999;DHT22;45859;51.378;6.736;2022-07-23T16:11:15;25.30;99.90
59999;DHT22;45859;51.378;6.736;2022-07-23T16:13:41;25.30;99.90
59999;DHT22;45859;51.378;6.736;2022-07-23T16:16:08;25.30;99.90
59999;DHT22;45859;51.378;6.736;2022-07-23T16:18:37;25.40;99.90